sensor_id;sensor_type;location;lat;lon;timestamp;temperature;humidity
52034;DHT22;38045;52.988;6.536;2024-03-25T00:01:54;5.30;74.40
52034;DHT22;38045;52.988;6.536;2024-03-25T00:04:20;5.30;74.50
52034;DHT22;38045;52.988;6.536;2024-03-25T00:06:48;5.30;74.30
52034;DHT22;38045;52.988;6.536;2024-03-25T00:09:14;5.30;74.30
52034;DHT22;38045;52.988;6.536;2024-03-25T00:11:41;5.30;74.40
52034;DHT22;38045;52.988;6.536;2024-03-25T00:14:07;5.30;74.30
52034;DHT22;38045;52.988;6.536;2024-03-25T00:16:33;5.30;74.10
52034;DHT22;38045;52.988;6.536;2024-03-25T00:18:59;5.30;74.00
52034;DHT22;38045;52.988;6.536;2024-03-25T00:21:25;5.20;73.90
52034;DHT22;38045;52.988;6.536;2024-03-25T00:23:50;5.10;74.10
52034;DHT22;38045;52.988;6.536;2024-03-25T00:26:16;5.10;74.30
52034;DHT22;38045;52.988;6.536;2024-03-25T00:28:41;5.10;74.50
52034;DHT22;38045;52.988;6.536;2024-03-25T00:31:07;5.00;74.40
52034;DHT22;38045;52.988;6.536;2024-03-25T00:33:33;5.00;74.50
52034;DHT22;38045;52.988;6.536;2024-03-25T00:35:59;5.00;73.60
52034;DHT22;38045;52.988;6.536;2024-03-25T00:38:25;4.90;74.20
52034;DHT22;38045;52.988;6.536;2024-03-25T00:40:50;5.00;73.20
52034;DHT22;38045;52.988;6.536;2024-03-25T00:43:16;4.90;73.50
52034;DHT22;38045;52.988;6.536;2024-03-25T00:45:43;4.90;73.40
52034;DHT22;38045;52.988;6.536;2024-03-25T00:48:08;4.90;73.80
52034;DHT22;38045;52.988;6.536;2024-03-25T00:50:34;4.90;73.70
52034;DHT22;38045;52.988;6.536;2024-03-25T00:52:59;4.90;73.80
52034;DHT22;38045;52.988;6.536;2024-03-25T00:55:25;4.90;73.70
52034;DHT22;38045;52.988;6.536;2024-03-25T00:57:51;4.90;73.80
52034;DHT22;38045;52.988;6.536;2024-03-25T01:00:16;4.90;73.80
52034;DHT22;38045;52.988;6.536;2024-03-25T01:02:43;4.90;73.90
52034;DHT22;38045;52.988;6.536;2024-03-25T01:05:08;4.90;74.00
52034;DHT22;38045;52.988;6.536;2024-03-25T01:07:35;4.90;74.10
52034;DHT22;38045;52.988;6.536;2024-03-25T01:10:00;4.90;74.10
52034;DHT22;38045;52.988;6.536;2024-03-25T01:12:26;4.90;74.20
52034;DHT22;38045;52.988;6.536;2024-03-25T01:14:52;4.90;74.00
52034;DHT22;38045;52.988;6.536;2024-03-25T01:17:18;4.90;74.00
52034;DHT22;38045;52.988;6.536;2024-03-25T01:19:44;4.90;74.10
52034;DHT22;38045;52.988;6.536;2024-03-25T01:22:09;4.90;74.10
52034;DHT22;38045;52.988;6.536;2024-03-25T01:24:35;5.00;74.10
52034;DHT22;38045;52.988;6.536;2024-03-25T01:27:01;5.00;74.20
52034;DHT22;38045;52.988;6.536;2024-03-25T01:29:26;5.00;74.20
52034;DHT22;38045;52.988;6.536;2024-03-25T01:31:52;5.00;74.10
52034;DHT22;38045;52.988;6.536;2024-03-25T01:34:18;5.00;74.10
52034;DHT22;38045;52.988;6.536;2024-03-25T01:36:43;5.00;74.20
52034;DHT22;38045;52.988;6.536;2024-03-25T01:39:09;5.00;74.20
52034;DHT22;38045;52.988;6.536;2024-03-25T01:41:35;5.00;74.20
52034;DHT22;38045;52.988;6.536;2024-03-25T01:44:01;5.00;74.10
52034;DHT22;38045;52.988;6.536;2024-03-25T01:46:27;5.00;74.00
52034;DHT22;38045;52.988;6.536;2024-03-25T01:48:53;5.00;74.10
52034;DHT22;38045;52.988;6.536;2024-03-25T01:51:21;5.00;74.00
52034;DHT22;38045;52.988;6.536;2024-03-25T01:53:47;5.00;74.00
52034;DHT22;38045;52.988;6.536;2024-03-25T01:56:14;4.90;74.10
52034;DHT22;38045;52.988;6.536;2024-03-25T01:58:40;4.90;74.10
52034;DHT22;38045;52.988;6.536;2024-03-25T02:01:07;4.90;74.10
52034;DHT22;38045;52.988;6.536;2024-03-25T02:03:36;5.00;74.00
52034;DHT22;38045;52.988;6.536;2024-03-25T02:06:09;5.00;74.00
52034;DHT22;38045;52.988;6.536;2024-03-25T02:08:36;5.00;74.00
52034;DHT22;38045;52.988;6.536;2024-03-25T02:11:02;5.00;74.00
52034;DHT22;38045;52.988;6.536;2024-03-25T02:13:28;5.00;74.10
52034;DHT22;38045;52.988;6.536;2024-03-25T02:15:53;5.00;74.10
52034;DHT22;38045;52.988;6.536;2024-03-25T02:18:20;5.00;74.00
52034;DHT22;38045;52.988;6.536;2024-03-25T02:20:46;5.00;74.10
52034;DHT22;38045;52.988;6.536;2024-03-25T02:23:12;5.00;74.10
52034;DHT22;38045;52.988;6.536;2024-03-25T02:25:40;5.00;74.20
52034;DHT22;38045;52.988;6.536;2024-03-25T02:28:06;5.00;74.20
52034;DHT22;38045;52.988;6.536;2024-03-25T02:30:31;5.00;74.10
52034;DHT22;38045;52.988;6.536;2024-03-25T02:32:57;5.00;74.10
52034;DHT22;38045;52.988;6.536;2024-03-25T02:35:25;4.90;74.20
52034;DHT22;38045;52.988;6.536;2024-03-25T02:37:51;5.00;74.10
52034;DHT22;38045;52.988;6.536;2024-03-25T02:40:19;5.00;74.10
52034;DHT22;38045;52.988;6.536;2024-03-25T02:42:45;4.90;74.20
52034;DHT22;38045;52.988;6.536;2024-03-25T02:45:11;4.90;73.90
52034;DHT22;38045;52.988;6.536;2024-03-25T02:47:36;4.90;74.00
52034;DHT22;38045;52.988;6.536;2024-03-25T02:50:02;5.00;74.10
52034;DHT22;38045;52.988;6.536;2024-03-25T02:52:28;4.90;73.90
52034;DHT22;38045;52.988;6.536;2024-03-25T02:54:53;4.90;73.60
52034;DHT22;38045;52.988;6.536;2024-03-25T02:57:22;4.90;73.70
52034;DHT22;38045;52.988;6.536;2024-03-25T02:59:47;4.90;73.90
52034;DHT22;38045;52.988;6.536;2024-03-25T03:02:13;4.90;73.90
52034;DHT22;38045;52.988;6.536;2024-03-25T03:04:39;4.90;73.60
52034;DHT22;38045;52.988;6.536;2024-03-25T03:07:04;4.90;74.00
52034;DHT22;38045;52.988;6.536;2024-03-25T03:09:30;4.90;74.00
52034;DHT22;38045;52.988;6.536;2024-03-25T03:11:56;4.90;74.20
52034;DHT22;38045;52.988;6.536;2024-03-25T03:14:21;5.00;74.00
52034;DHT22;38045;52.988;6.536;2024-03-25T03:16:47;5.00;73.70
52034;DHT22;38045;52.988;6.536;2024-03-25T03:19:13;4.90;73.50
52034;DHT22;38045;52.988;6.536;2024-03-25T03:21:38;4.90;73.70
52034;DHT22;38045;52.988;6.536;2024-03-25T03:24:05;4.90;73.70
52034;DHT22;38045;52.988;6.536;2024-03-25T03:26:31;4.90;73.70
52034;DHT22;38045;52.988;6.536;2024-03-25T03:28:57;4.90;73.60
52034;DHT22;38045;52.988;6.536;2024-03-25T03:31:22;4.90;73.60
52034;DHT22;38045;52.988;6.536;2024-03-25T03:33:48;4.90;73.60
52034;DHT22;38045;52.988;6.536;2024-03-25T03:36:18;4.90;73.50
52034;DHT22;38045;52.988;6.536;2024-03-25T03:38:45;4.80;73.60
52034;DHT22;38045;52.988;6.536;2024-03-25T03:41:11;4.80;73.60
52034;DHT22;38045;52.988;6.536;2024-03-25T03:43:36;4.80;73.60
52034;DHT22;38045;52.988;6.536;2024-03-25T03:46:02;4.70;73.60
52034;DHT22;38045;52.988;6.536;2024-03-25T03:48:29;4.70;73.50
52034;DHT22;38045;52.988;6.536;2024-03-25T03:50:54;4.70;73.50
52034;DHT22;38045;52.988;6.536;2024-03-25T03:53:20;4.70;73.60
52034;DHT22;38045;52.988;6.536;2024-03-25T03:55:56;4.60;73.60
52034;DHT22;38045;52.988;6.536;2024-03-25T03:58:23;4.60;73.60
52034;DHT22;38045;52.988;6.536;2024-03-25T04:00:49;4.60;73.50
52034;DHT22;38045;52.988;6.536;2024-03-25T04:03:15;4.60;73.70
52034;DHT22;38045;52.988;6.536;2024-03-25T04:05:41;4.60;73.60
52034;DHT22;38045;52.988;6.536;2024-03-25T04:08:07;4.60;73.80
52034;DHT22;38045;52.988;6.536;2024-03-25T04:10:34;4.60;73.70
52034;DHT22;38045;52.988;6.536;2024-03-25T04:13:00;4.60;73.60
52034;DHT22;38045;52.988;6.536;2024-03-25T04:15:26;4.50;73.60
52034;DHT22;38045;52.988;6.536;2024-03-25T04:17:52;4.60;73.70
52034;DHT22;38045;52.988;6.536;2024-03-25T04:20:18;4.60;73.60
52034;DHT22;38045;52.988;6.536;2024-03-25T04:22:45;4.50;73.70
52034;DHT22;38045;52.988;6.536;2024-03-25T04:25:11;4.50;73.80
52034;DHT22;38045;52.988;6.536;2024-03-25T04:27:38;4.50;74.30
52034;DHT22;38045;52.988;6.536;2024-03-25T04:30:08;4.50;74.40
52034;DHT22;38045;52.988;6.536;2024-03-25T04:32:34;4.50;74.60
52034;DHT22;38045;52.988;6.536;2024-03-25T04:35:00;4.50;74.60
52034;DHT22;38045;52.988;6.536;2024-03-25T04:37:27;4.50;74.70
52034;DHT22;38045;52.988;6.536;2024-03-25T04:39:56;4.50;74.50
52034;DHT22;38045;52.988;6.536;2024-03-25T04:42:22;4.50;74.60
52034;DHT22;38045;52.988;6.536;2024-03-25T04:44:49;4.40;74.50
52034;DHT22;38045;52.988;6.536;2024-03-25T04:47:14;4.40;74.50
52034;DHT22;38045;52.988;6.536;2024-03-25T04:49:41;4.40;74.80
52034;DHT22;38045;52.988;6.536;2024-03-25T04:52:06;4.40;75.10
52034;DHT22;38045;52.988;6.536;2024-03-25T04:54:32;4.40;75.00
52034;DHT22;38045;52.988;6.536;2024-03-25T04:56:58;4.40;75.30
52034;DHT22;38045;52.988;6.536;2024-03-25T04:59:23;4.40;75.20
52034;DHT22;38045;52.988;6.536;2024-03-25T05:01:49;4.30;74.90
52034;DHT22;38045;52.988;6.536;2024-03-25T05:04:15;4.30;75.00
52034;DHT22;38045;52.988;6.536;2024-03-25T05:06:40;4.30;75.00
52034;DHT22;38045;52.988;6.536;2024-03-25T05:09:06;4.30;75.10
52034;DHT22;38045;52.988;6.536;2024-03-25T05:11:32;4.30;75.10
52034;DHT22;38045;52.988;6.536;2024-03-25T05:13:58;4.30;75.20
52034;DHT22;38045;52.988;6.536;2024-03-25T05:16:24;4.30;75.20
52034;DHT22;38045;52.988;6.536;2024-03-25T05:18:50;4.30;75.10
52034;DHT22;38045;52.988;6.536;2024-03-25T05:21:15;4.30;75.00
52034;DHT22;38045;52.988;6.536;2024-03-25T05:23:41;4.20;75.10
52034;DHT22;38045;52.988;6.536;2024-03-25T05:26:08;4.20;75.10
52034;DHT22;38045;52.988;6.536;2024-03-25T05:28:33;4.20;75.20
52034;DHT22;38045;52.988;6.536;2024-03-25T05:31:06;4.20;75.60
52034;DHT22;38045;52.988;6.536;2024-03-25T05:33:33;4.20;75.50
52034;DHT22;38045;52.988;6.536;2024-03-25T05:35:59;4.10;75.60
52034;DHT22;38045;52.988;6.536;2024-03-25T05:38:24;4.10;75.70
52034;DHT22;38045;52.988;6.536;2024-03-25T05:40:50;4.10;75.80
52034;DHT22;38045;52.988;6.536;2024-03-25T05:43:15;4.10;76.10
52034;DHT22;38045;52.988;6.536;2024-03-25T05:45:49;4.10;75.90
52034;DHT22;38045;52.988;6.536;2024-03-25T05:48:15;4.10;76.00
52034;DHT22;38045;52.988;6.536;2024-03-25T05:50:40;4.10;76.30
52034;DHT22;38045;52.988;6.536;2024-03-25T05:53:06;4.10;76.10
52034;DHT22;38045;52.988;6.536;2024-03-25T05:55:31;4.10;76.30
52034;DHT22;38045;52.988;6.536;2024-03-25T05:57:57;4.10;76.10
52034;DHT22;38045;52.988;6.536;2024-03-25T06:00:22;4.10;76.10
52034;DHT22;38045;52.988;6.536;2024-03-25T06:02:50;4.10;76.10
52034;DHT22;38045;52.988;6.536;2024-03-25T06:05:15;4.10;76.10
52034;DHT22;38045;52.988;6.536;2024-03-25T06:07:41;4.10;76.00
52034;DHT22;38045;52.988;6.536;2024-03-25T06:10:06;4.10;76.20
52034;DHT22;38045;52.988;6.536;2024-03-25T06:12:32;4.10;76.20
52034;DHT22;38045;52.988;6.536;2024-03-25T06:14:58;4.10;76.40
52034;DHT22;38045;52.988;6.536;2024-03-25T06:17:23;4.10;76.30
52034;DHT22;38045;52.988;6.536;2024-03-25T06:19:49;4.10;76.60
52034;DHT22;38045;52.988;6.536;2024-03-25T06:22:15;4.20;76.60
52034;DHT22;38045;52.988;6.536;2024-03-25T06:24:41;4.20;76.50
52034;DHT22;38045;52.988;6.536;2024-03-25T06:27:07;4.20;76.60
52034;DHT22;38045;52.988;6.536;2024-03-25T06:29:33;4.20;76.70
52034;DHT22;38045;52.988;6.536;2024-03-25T06:32:01;4.30;76.70
52034;DHT22;38045;52.988;6.536;2024-03-25T06:34:45;4.30;76.90
52034;DHT22;38045;52.988;6.536;2024-03-25T06:37:10;4.40;76.70
52034;DHT22;38045;52.988;6.536;2024-03-25T06:39:36;4.40;76.90
52034;DHT22;38045;52.988;6.536;2024-03-25T06:42:02;4.40;77.10
52034;DHT22;38045;52.988;6.536;2024-03-25T06:44:27;4.40;77.10
52034;DHT22;38045;52.988;6.536;2024-03-25T06:46:53;4.30;77.00
52034;DHT22;38045;52.988;6.536;2024-03-25T06:49:19;4.30;77.00
52034;DHT22;38045;52.988;6.536;2024-03-25T06:51:45;4.30;77.20
52034;DHT22;38045;52.988;6.536;2024-03-25T06:54:11;4.40;77.20
52034;DHT22;38045;52.988;6.536;2024-03-25T06:56:36;4.40;77.30
52034;DHT22;38045;52.988;6.536;2024-03-25T06:59:02;4.50;77.20
52034;DHT22;38045;52.988;6.536;2024-03-25T07:01:28;4.50;77.20
52034;DHT22;38045;52.988;6.536;2024-03-25T07:03:53;4.60;77.20
52034;DHT22;38045;52.988;6.536;2024-03-25T07:06:19;4.70;77.30
52034;DHT22;38045;52.988;6.536;2024-03-25T07:08:45;4.70;77.30
52034;DHT22;38045;52.988;6.536;2024-03-25T07:11:13;4.70;77.20
52034;DHT22;38045;52.988;6.536;2024-03-25T07:13:39;4.90;77.50
52034;DHT22;38045;52.988;6.536;2024-03-25T07:16:04;4.90;77.30
52034;DHT22;38045;52.988;6.536;2024-03-25T07:18:30;5.00;77.30
52034;DHT22;38045;52.988;6.536;2024-03-25T07:20:55;5.00;77.20
52034;DHT22;38045;52.988;6.536;2024-03-25T07:23:21;5.10;77.30
52034;DHT22;38045;52.988;6.536;2024-03-25T07:25:47;5.30;77.30
52034;DHT22;38045;52.988;6.536;2024-03-25T07:28:12;5.30;77.20
52034;DHT22;38045;52.988;6.536;2024-03-25T07:30:38;5.50;77.20
52034;DHT22;38045;52.988;6.536;2024-03-25T07:33:03;5.50;76.90
52034;DHT22;38045;52.988;6.536;2024-03-25T07:35:30;5.50;76.70
52034;DHT22;38045;52.988;6.536;2024-03-25T07:37:56;5.60;76.90
52034;DHT22;38045;52.988;6.536;2024-03-25T07:40:22;5.70;76.90
52034;DHT22;38045;52.988;6.536;2024-03-25T07:42:48;5.80;76.60
52034;DHT22;38045;52.988;6.536;2024-03-25T07:45:14;5.90;75.90
52034;DHT22;38045;52.988;6.536;2024-03-25T07:47:40;5.90;76.40
52034;DHT22;38045;52.988;6.536;2024-03-25T07:50:06;6.00;75.50
52034;DHT22;38045;52.988;6.536;2024-03-25T07:52:32;6.00;75.70
52034;DHT22;38045;52.988;6.536;2024-03-25T07:54:57;6.10;75.90
52034;DHT22;38045;52.988;6.536;2024-03-25T07:57:23;6.20;75.70
52034;DHT22;38045;52.988;6.536;2024-03-25T07:59:49;6.30;75.20
52034;DHT22;38045;52.988;6.536;2024-03-25T08:02:15;6.30;74.30
52034;DHT22;38045;52.988;6.536;2024-03-25T08:04:41;6.40;74.60
52034;DHT22;38045;52.988;6.536;2024-03-25T08:07:07;6.40;74.00
52034;DHT22;38045;52.988;6.536;2024-03-25T08:09:33;6.40;74.20
52034;DHT22;38045;52.988;6.536;2024-03-25T08:11:58;6.40;74.20
52034;DHT22;38045;52.988;6.536;2024-03-25T08:14:24;6.60;73.80
52034;DHT22;38045;52.988;6.536;2024-03-25T08:16:50;6.70;73.60
52034;DHT22;38045;52.988;6.536;2024-03-25T08:19:15;6.80;74.20
52034;DHT22;38045;52.988;6.536;2024-03-25T08:21:41;6.90;73.70
52034;DHT22;38045;52.988;6.536;2024-03-25T08:24:07;7.00;72.90
52034;DHT22;38045;52.988;6.536;2024-03-25T08:26:32;7.00;72.70
52034;DHT22;38045;52.988;6.536;2024-03-25T08:28:58;7.00;72.60
52034;DHT22;38045;52.988;6.536;2024-03-25T08:31:24;7.00;72.80
52034;DHT22;38045;52.988;6.536;2024-03-25T08:33:49;6.90;72.30
52034;DHT22;38045;52.988;6.536;2024-03-25T08:36:16;6.80;72.80
52034;DHT22;38045;52.988;6.536;2024-03-25T08:38:41;6.90;72.90
52034;DHT22;38045;52.988;6.536;2024-03-25T08:41:07;6.90;72.50
52034;DHT22;38045;52.988;6.536;2024-03-25T08:43:33;6.80;72.50
52034;DHT22;38045;52.988;6.536;2024-03-25T08:45:58;6.80;72.40
52034;DHT22;38045;52.988;6.536;2024-03-25T08:48:24;6.90;73.40
52034;DHT22;38045;52.988;6.536;2024-03-25T08:50:49;7.00;73.30
52034;DHT22;38045;52.988;6.536;2024-03-25T08:53:15;7.00;72.70
52034;DHT22;38045;52.988;6.536;2024-03-25T08:55:45;7.00;72.60
52034;DHT22;38045;52.988;6.536;2024-03-25T08:58:12;7.00;72.30
52034;DHT22;38045;52.988;6.536;2024-03-25T09:00:38;7.20;71.90
52034;DHT22;38045;52.988;6.536;2024-03-25T09:03:04;7.40;72.80
52034;DHT22;38045;52.988;6.536;2024-03-25T09:05:30;7.60;72.20
52034;DHT22;38045;52.988;6.536;2024-03-25T09:07:56;7.70;70.80
52034;DHT22;38045;52.988;6.536;2024-03-25T09:10:24;7.80;72.60
52034;DHT22;38045;52.988;6.536;2024-03-25T09:13:08;7.80;71.60
52034;DHT22;38045;52.988;6.536;2024-03-25T09:15:34;7.50;69.60
52034;DHT22;38045;52.988;6.536;2024-03-25T09:18:00;7.50;70.30
52034;DHT22;38045;52.988;6.536;2024-03-25T09:20:26;7.50;70.20
52034;DHT22;38045;52.988;6.536;2024-03-25T09:22:52;7.50;68.40
52034;DHT22;38045;52.988;6.536;2024-03-25T09:25:18;7.40;68.30
52034;DHT22;38045;52.988;6.536;2024-03-25T09:27:48;7.20;69.10
52034;DHT22;38045;52.988;6.536;2024-03-25T09:30:14;7.10;69.30
52034;DHT22;38045;52.988;6.536;2024-03-25T09:32:43;7.20;70.00
52034;DHT22;38045;52.988;6.536;2024-03-25T09:35:10;7.30;70.70
52034;DHT22;38045;52.988;6.536;2024-03-25T09:37:36;7.50;68.30
52034;DHT22;38045;52.988;6.536;2024-03-25T09:40:02;7.60;69.80
52034;DHT22;38045;52.988;6.536;2024-03-25T09:42:47;7.80;70.20
52034;DHT22;38045;52.988;6.536;2024-03-25T09:45:16;8.00;68.00
52034;DHT22;38045;52.988;6.536;2024-03-25T09:47:46;8.00;67.20
52034;DHT22;38045;52.988;6.536;2024-03-25T09:50:13;8.00;67.50
52034;DHT22;38045;52.988;6.536;2024-03-25T09:52:40;8.00;67.90
52034;DHT22;38045;52.988;6.536;2024-03-25T09:55:06;8.00;67.00
52034;DHT22;38045;52.988;6.536;2024-03-25T09:57:32;8.20;68.30
52034;DHT22;38045;52.988;6.536;2024-03-25T09:59:58;8.40;65.80
52034;DHT22;38045;52.988;6.536;2024-03-25T10:02:25;8.60;66.10
52034;DHT22;38045;52.988;6.536;2024-03-25T10:04:52;8.90;65.70
52034;DHT22;38045;52.988;6.536;2024-03-25T10:07:24;9.00;63.70
52034;DHT22;38045;52.988;6.536;2024-03-25T10:09:51;9.00;64.70
52034;DHT22;38045;52.988;6.536;2024-03-25T10:12:17;9.00;64.70
52034;DHT22;38045;52.988;6.536;2024-03-25T10:14:42;9.00;63.00
52034;DHT22;38045;52.988;6.536;2024-03-25T10:17:11;9.00;63.20
52034;DHT22;38045;52.988;6.536;2024-03-25T10:19:37;9.20;64.50
52034;DHT22;38045;52.988;6.536;2024-03-25T10:22:07;9.30;64.30
52034;DHT22;38045;52.988;6.536;2024-03-25T10:24:45;9.40;63.10
52034;DHT22;38045;52.988;6.536;2024-03-25T10:27:18;9.30;59.60
52034;DHT22;38045;52.988;6.536;2024-03-25T10:29:51;9.20;61.70
52034;DHT22;38045;52.988;6.536;2024-03-25T10:32:17;9.20;62.30
52034;DHT22;38045;52.988;6.536;2024-03-25T10:34:44;9.20;61.70
52034;DHT22;38045;52.988;6.536;2024-03-25T10:37:10;9.20;59.90
52034;DHT22;38045;52.988;6.536;2024-03-25T10:39:43;9.20;60.30
52034;DHT22;38045;52.988;6.536;2024-03-25T10:42:14;9.20;61.30
52034;DHT22;38045;52.988;6.536;2024-03-25T10:44:40;9.40;63.20
52034;DHT22;38045;52.988;6.536;2024-03-25T10:47:07;9.50;62.60
52034;DHT22;38045;52.988;6.536;2024-03-25T10:49:57;9.60;60.50
52034;DHT22;38045;52.988;6.536;2024-03-25T10:52:24;9.60;59.50
52034;DHT22;38045;52.988;6.536;2024-03-25T10:54:51;9.70;61.10
52034;DHT22;38045;52.988;6.536;2024-03-25T10:57:20;9.80;62.20
52034;DHT22;38045;52.988;6.536;2024-03-25T10:59:46;10.00;60.20
52034;DHT22;38045;52.988;6.536;2024-03-25T11:02:12;10.10;59.60
52034;DHT22;38045;52.988;6.536;2024-03-25T11:04:38;10.10;60.80
52034;DHT22;38045;52.988;6.536;2024-03-25T11:07:13;10.00;61.30
52034;DHT22;38045;52.988;6.536;2024-03-25T11:09:39;10.00;61.50
52034;DHT22;38045;52.988;6.536;2024-03-25T11:12:05;9.90;60.50
52034;DHT22;38045;52.988;6.536;2024-03-25T11:14:31;9.70;61.00
52034;DHT22;38045;52.988;6.536;2024-03-25T11:16:58;9.50;60.10
52034;DHT22;38045;52.988;6.536;2024-03-25T11:19:29;9.20;60.70
52034;DHT22;38045;52.988;6.536;2024-03-25T11:22:08;9.00;61.50
52034;DHT22;38045;52.988;6.536;2024-03-25T11:24:35;8.90;62.70
52034;DHT22;38045;52.988;6.536;2024-03-25T11:27:07;9.00;63.20
52034;DHT22;38045;52.988;6.536;2024-03-25T11:29:33;9.00;63.10
52034;DHT22;38045;52.988;6.536;2024-03-25T11:32:03;9.10;62.50
52034;DHT22;38045;52.988;6.536;2024-03-25T11:34:29;9.20;62.90
52034;DHT22;38045;52.988;6.536;2024-03-25T11:36:56;9.30;62.90
52034;DHT22;38045;52.988;6.536;2024-03-25T11:39:23;9.40;62.20
52034;DHT22;38045;52.988;6.536;2024-03-25T11:41:49;9.50;62.10
52034;DHT22;38045;52.988;6.536;2024-03-25T11:44:16;9.80;61.80
52034;DHT22;38045;52.988;6.536;2024-03-25T11:46:43;10.00;61.60
52034;DHT22;38045;52.988;6.536;2024-03-25T11:49:14;10.00;60.50
52034;DHT22;38045;52.988;6.536;2024-03-25T11:51:40;10.00;59.10
52034;DHT22;38045;52.988;6.536;2024-03-25T11:54:07;9.90;59.80
52034;DHT22;38045;52.988;6.536;2024-03-25T11:56:38;9.70;59.70
52034;DHT22;38045;52.988;6.536;2024-03-25T11:59:13;9.70;60.30
52034;DHT22;38045;52.988;6.536;2024-03-25T12:01:39;9.60;61.00
52034;DHT22;38045;52.988;6.536;2024-03-25T12:04:31;9.60;61.10
52034;DHT22;38045;52.988;6.536;2024-03-25T12:06:57;9.60;61.30
52034;DHT22;38045;52.988;6.536;2024-03-25T12:09:23;9.60;60.20
52034;DHT22;38045;52.988;6.536;2024-03-25T12:12:07;9.70;60.20
52034;DHT22;38045;52.988;6.536;2024-03-25T12:14:33;9.70;59.90
52034;DHT22;38045;52.988;6.536;2024-03-25T12:16:59;10.00;60.70
52034;DHT22;38045;52.988;6.536;2024-03-25T12:19:25;10.20;59.60
52034;DHT22;38045;52.988;6.536;2024-03-25T12:21:59;10.40;59.30
52034;DHT22;38045;52.988;6.536;2024-03-25T12:24:26;10.60;59.70
52034;DHT22;38045;52.988;6.536;2024-03-25T12:26:52;10.70;58.00
52034;DHT22;38045;52.988;6.536;2024-03-25T12:29:17;10.70;58.00
52034;DHT22;38045;52.988;6.536;2024-03-25T12:31:54;10.90;58.40
52034;DHT22;38045;52.988;6.536;2024-03-25T12:34:19;11.00;58.70
52034;DHT22;38045;52.988;6.536;2024-03-25T12:36:45;11.10;57.60
52034;DHT22;38045;52.988;6.536;2024-03-25T12:39:16;11.10;57.60
52034;DHT22;38045;52.988;6.536;2024-03-25T12:41:42;11.10;58.20
52034;DHT22;38045;52.988;6.536;2024-03-25T12:44:07;11.10;57.90
52034;DHT22;38045;52.988;6.536;2024-03-25T12:46:33;11.10;57.50
52034;DHT22;38045;52.988;6.536;2024-03-25T12:48:59;10.90;56.00
52034;DHT22;38045;52.988;6.536;2024-03-25T12:51:24;10.70;56.70
52034;DHT22;38045;52.988;6.536;2024-03-25T12:53:50;10.50;57.00
52034;DHT22;38045;52.988;6.536;2024-03-25T12:56:16;10.50;57.90
52034;DHT22;38045;52.988;6.536;2024-03-25T12:58:42;10.40;57.60
52034;DHT22;38045;52.988;6.536;2024-03-25T13:01:08;10.30;57.80
52034;DHT22;38045;52.988;6.536;2024-03-25T13:03:33;10.30;57.50
52034;DHT22;38045;52.988;6.536;2024-03-25T13:05:59;10.20;56.70
52034;DHT22;38045;52.988;6.536;2024-03-25T13:08:25;10.20;56.90
52034;DHT22;38045;52.988;6.536;2024-03-25T13:10:50;10.20;56.20
52034;DHT22;38045;52.988;6.536;2024-03-25T13:13:16;10.20;57.70
52034;DHT22;38045;52.988;6.536;2024-03-25T13:15:42;10.30;57.40
52034;DHT22;38045;52.988;6.536;2024-03-25T13:18:09;10.40;58.50
52034;DHT22;38045;52.988;6.536;2024-03-25T13:20:34;10.50;58.00
52034;DHT22;38045;52.988;6.536;2024-03-25T13:23:00;10.60;59.20
52034;DHT22;38045;52.988;6.536;2024-03-25T13:25:26;10.80;57.30
52034;DHT22;38045;52.988;6.536;2024-03-25T13:27:54;11.00;58.50
52034;DHT22;38045;52.988;6.536;2024-03-25T13:30:20;11.30;59.50
52034;DHT22;38045;52.988;6.536;2024-03-25T13:32:45;11.40;57.10
52034;DHT22;38045;52.988;6.536;2024-03-25T13:35:11;11.50;56.40
52034;DHT22;38045;52.988;6.536;2024-03-25T13:37:37;11.40;54.20
52034;DHT22;38045;52.988;6.536;2024-03-25T13:40:02;11.10;55.00
52034;DHT22;38045;52.988;6.536;2024-03-25T13:42:31;11.10;55.00
52034;DHT22;38045;52.988;6.536;2024-03-25T13:44:56;11.00;56.10
52034;DHT22;38045;52.988;6.536;2024-03-25T13:47:22;11.10;55.70
52034;DHT22;38045;52.988;6.536;2024-03-25T13:49:48;11.20;55.40
52034;DHT22;38045;52.988;6.536;2024-03-25T13:52:13;11.40;55.00
52034;DHT22;38045;52.988;6.536;2024-03-25T13:54:39;11.50;55.50
52034;DHT22;38045;52.988;6.536;2024-03-25T13:57:05;11.50;55.70
52034;DHT22;38045;52.988;6.536;2024-03-25T13:59:30;11.70;56.10
52034;DHT22;38045;52.988;6.536;2024-03-25T14:01:56;12.00;56.60
52034;DHT22;38045;52.988;6.536;2024-03-25T14:04:21;12.30;52.90
52034;DHT22;38045;52.988;6.536;2024-03-25T14:06:47;12.50;54.40
52034;DHT22;38045;52.988;6.536;2024-03-25T14:09:24;12.50;50.70
52034;DHT22;38045;52.988;6.536;2024-03-25T14:11:50;12.50;52.30
52034;DHT22;38045;52.988;6.536;2024-03-25T14:14:16;12.50;50.10
52034;DHT22;38045;52.988;6.536;2024-03-25T14:16:41;12.70;51.80
52034;DHT22;38045;52.988;6.536;2024-03-25T14:19:07;13.00;52.50
52034;DHT22;38045;52.988;6.536;2024-03-25T14:21:33;13.30;52.60
52034;DHT22;38045;52.988;6.536;2024-03-25T14:23:58;13.10;49.40
52034;DHT22;38045;52.988;6.536;2024-03-25T14:26:24;12.80;51.90
52034;DHT22;38045;52.988;6.536;2024-03-25T14:28:49;12.50;52.60
52034;DHT22;38045;52.988;6.536;2024-03-25T14:31:15;12.00;51.90
52034;DHT22;38045;52.988;6.536;2024-03-25T14:33:40;11.50;51.50
52034;DHT22;38045;52.988;6.536;2024-03-25T14:36:06;11.30;53.10
52034;DHT22;38045;52.988;6.536;2024-03-25T14:38:32;11.20;53.50
52034;DHT22;38045;52.988;6.536;2024-03-25T14:40:58;11.10;53.10
52034;DHT22;38045;52.988;6.536;2024-03-25T14:43:24;11.10;53.10
52034;DHT22;38045;52.988;6.536;2024-03-25T14:45:49;10.90;52.80
52034;DHT22;38045;52.988;6.536;2024-03-25T14:48:15;10.80;53.90
52034;DHT22;38045;52.988;6.536;2024-03-25T14:50:40;10.90;54.60
52034;DHT22;38045;52.988;6.536;2024-03-25T14:53:06;11.00;53.40
52034;DHT22;38045;52.988;6.536;2024-03-25T14:55:32;11.10;54.30
52034;DHT22;38045;52.988;6.536;2024-03-25T14:57:58;11.10;53.50
52034;DHT22;38045;52.988;6.536;2024-03-25T15:00:24;11.20;52.60
52034;DHT22;38045;52.988;6.536;2024-03-25T15:02:53;11.30;52.60
52034;DHT22;38045;52.988;6.536;2024-03-25T15:05:18;11.30;53.40
52034;DHT22;38045;52.988;6.536;2024-03-25T15:07:47;11.70;54.30
52034;DHT22;38045;52.988;6.536;2024-03-25T15:10:12;12.40;54.00
52034;DHT22;38045;52.988;6.536;2024-03-25T15:12:39;12.70;52.40
52034;DHT22;38045;52.988;6.536;2024-03-25T15:15:05;12.50;52.30
52034;DHT22;38045;52.988;6.536;2024-03-25T15:17:33;12.40;53.10
52034;DHT22;38045;52.988;6.536;2024-03-25T15:19:59;12.50;53.10
52034;DHT22;38045;52.988;6.536;2024-03-25T15:22:25;13.00;53.30
52034;DHT22;38045;52.988;6.536;2024-03-25T15:24:50;13.50;53.60
52034;DHT22;38045;52.988;6.536;2024-03-25T15:27:16;14.20;52.50
52034;DHT22;38045;52.988;6.536;2024-03-25T15:29:41;14.80;51.90
52034;DHT22;38045;52.988;6.536;2024-03-25T15:32:07;15.20;51.10
52034;DHT22;38045;52.988;6.536;2024-03-25T15:34:33;15.60;49.90
52034;DHT22;38045;52.988;6.536;2024-03-25T15:36:58;16.00;50.30
52034;DHT22;38045;52.988;6.536;2024-03-25T15:39:24;16.20;48.50